Time;durP1;ratioP1;P1;durP2;ratioP2;P2;SDS_P1;SDS_P2;PMS_P1;PMS_P2;Temp;Humidity;BMP_temperature;BMP_pressure;BME280_temperature;BME280_humidity;BME280_pressure;Samples;Min_cycle;Max_cycle;Signal;HPM_P1;HPM_P2
2022/03/06 00:02:22;;;;;;;11.20;7.30;;;;;;;2.50;55.67;101178.91;117353;1188;22607;-87
2022/03/06 00:04:51;;;;;;;10.70;7.50;;;;;;;2.48;55.66;101176.23;117217;1189;21842;-88
2022/03/06 00:07:20;;;;;;;9.50;7.20;;;;;;;2.43;55.67;101176.56;117288;1188;21851;-88
2022/03/06 00:09:50;;;;;;;10.20;7.70;;;;;;;2.37;55.65;101164.95;117225;1188;22840;-88
2022/03/06 00:12:19;;;;;;;9.20;7.00;;;;;;;2.32;55.61;101168.05;117067;1189;21854;-88
2022/03/06 00:14:48;;;;;;;9.40;7.00;;;;;;;2.31;55.53;101169.61;117105;1189;21889;-88
2022/03/06 00:17:17;;;;;;;9.30;6.60;;;;;;;2.24;55.70;101161.91;117418;1188;23440;-88
2022/03/06 00:20:08;;;;;;;9.60;6.70;;;;;;;2.15;55.30;101160.02;117393;1186;22917;-89
2022/03/06 00:22:37;;;;;;;12.70;7.60;;;;;;;2.01;55.18;101159.91;117443;1188;22979;-89
2022/03/06 00:25:06;;;;;;;8.70;6.30;;;;;;;1.90;55.30;101160.23;117751;1188;21859;-89
2022/03/06 00:27:36;;;;;;;9.90;7.30;;;;;;;1.80;55.33;101165.23;117262;1190;22621;-89
2022/03/06 00:30:05;;;;;;;9.50;6.90;;;;;;;1.71;55.50;101164.73;117231;1184;22642;-89
2022/03/06 00:32:37;;;;;;;10.50;7.10;;;;;;;1.65;55.38;101164.35;117506;1188;22027;-87
2022/03/06 00:35:06;;;;;;;9.30;7.10;;;;;;;1.53;55.33;101161.30;117543;1189;21865;-88
2022/03/06 00:37:34;;;;;;;8.80;6.80;;;;;;;1.45;55.56;101165.00;117269;1188;21859;-89
2022/03/06 00:40:04;;;;;;;9.40;6.80;;;;;;;1.41;55.59;101171.04;117098;1190;22437;-88
2022/03/06 00:42:33;;;;;;;10.70;6.90;;;;;;;1.34;55.46;101174.76;117461;1188;22941;-88
2022/03/06 00:45:01;;;;;;;10.90;7.70;;;;;;;1.26;55.27;101172.76;117261;1186;22933;-89
2022/03/06 00:47:30;;;;;;;9.50;6.90;;;;;;;1.17;55.41;101167.54;117384;1188;22889;-88
2022/03/06 00:49:59;;;;;;;12.30;7.70;;;;;;;1.04;55.24;101162.23;117311;1189;22646;-88
2022/03/06 00:52:28;;;;;;;11.00;7.50;;;;;;;0.94;55.17;101164.44;117109;1188;22789;-88
2022/03/06 00:54:57;;;;;;;11.70;8.30;;;;;;;0.82;55.08;101164.48;117663;1189;22962;-88
2022/03/06 00:57:25;;;;;;;10.20;7.50;;;;;;;0.73;55.20;101159.78;117203;1189;21909;-87
2022/03/06 00:59:53;;;;;;;10.20;7.30;;;;;;;0.68;55.36;101161.48;117301;1188;22745;-88
2022/03/06 01:02:23;;;;;;;9.80;7.10;;;;;;;0.67;55.54;101164.06;117307;1187;22398;-89
2022/03/06 01:04:51;;;;;;;11.50;8.00;;;;;;;0.68;55.56;101161.12;117291;1188;22905;-87
2022/03/06 01:07:29;;;;;;;8.90;6.90;;;;;;;0.68;55.27;101160.96;117268;1188;21883;-87
2022/03/06 01:09:58;;;;;;;10.00;7.10;;;;;;;0.64;55.56;101163.23;117300;1188;21851;-87
2022/03/06 01:12:26;;;;;;;11.10;7.70;;;;;;;0.63;55.64;101161.30;117433;1188;21879;-87
2022/03/06 01:14:55;;;;;;;11.70;8.10;;;;;;;0.61;55.54;101166.05;117069;1190;21902;-88
2022/03/06 01:17:24;;;;;;;13.70;9.00;;;;;;;0.60;55.47;101164.62;117086;1189;22899;-89
2022/03/06 01:19:52;;;;;;;11.40;7.90;;;;;;;0.60;55.72;101164.27;117321;1188;21868;-88
2022/03/06 01:22:20;;;;;;;12.40;8.30;;;;;;;0.61;55.51;101163.95;117355;1188;23560;-89
2022/03/06 01:24:49;;;;;;;11.70;8.00;;;;;;;0.60;55.55;101168.27;117103;1189;21831;-89
2022/03/06 01:27:18;;;;;;;11.10;8.20;;;;;;;0.61;55.62;101167.42;117328;1188;22815;-89
2022/03/06 01:29:47;;;;;;;11.00;7.70;;;;;;;0.61;55.48;101169.85;117296;1187;23874;-88
2022/03/06 01:32:15;;;;;;;11.20;7.80;;;;;;;0.61;55.59;101173.98;117340;1189;21855;-87
2022/03/06 01:34:44;;;;;;;12.30;8.20;;;;;;;0.60;55.68;101175.67;117215;1188;21898;-88
2022/03/06 01:37:12;;;;;;;12.30;7.80;;;;;;;0.60;55.69;101174.98;117239;1188;21858;-88
2022/03/06 01:39:41;;;;;;;10.80;7.70;;;;;;;0.60;55.69;101177.23;117262;1188;22109;-88
2022/03/06 01:42:09;;;;;;;13.00;8.30;;;;;;;0.62;55.32;101170.93;117263;1189;22198;-89
2022/03/06 01:44:38;;;;;;;11.20;7.40;;;;;;;0.61;55.61;101171.41;117104;1190;22818;-87
2022/03/06 01:47:07;;;;;;;10.70;7.50;;;;;;;0.55;55.56;101167.52;117338;1188;22903;-90
2022/03/06 01:49:35;;;;;;;11.40;7.80;;;;;;;0.52;55.79;101165.00;117265;1188;21855;-88
2022/03/06 01:52:05;;;;;;;13.20;8.60;;;;;;;0.56;55.31;101165.86;117301;1188;22705;-88
2022/03/06 01:54:34;;;;;;;12.00;8.00;;;;;;;0.59;55.29;101165.61;117456;1189;23527;-89
2022/03/06 01:57:03;;;;;;;11.20;7.20;;;;;;;0.59;55.33;101165.98;117277;1188;22255;-88
2022/03/06 01:59:32;;;;;;;10.70;6.60;;;;;;;0.55;55.46;101171.35;117061;1189;21860;-88
2022/03/06 02:02:01;;;;;;;11.80;6.70;;;;;;;0.55;55.54;101175.47;117073;1190;22915;-88
2022/03/06 02:04:30;;;;;;;10.60;6.60;;;;;;;0.57;55.66;101176.27;117321;1188;22840;-89
2022/03/06 02:06:59;;;;;;;10.40;7.20;;;;;;;0.58;55.51;101173.50;117091;1189;22944;-89
2022/03/06 02:09:28;;;;;;;11.50;7.20;;;;;;;0.60;55.25;101170.86;117023;1189;23561;-88
2022/03/06 02:14:43;;;;;;;11.40;6.80;;;;;;;0.62;55.42;101178.01;117196;1188;21854;-87
2022/03/06 02:17:11;;;;;;;9.50;6.90;;;;;;;0.58;55.53;101176.13;117304;1188;23539;-87
2022/03/06 02:19:52;;;;;;;11.30;7.10;;;;;;;0.62;55.64;101175.05;117030;1189;22645;-87
2022/03/06 02:22:25;;;;;;;9.30;6.30;;;;;;;0.62;55.52;101173.34;117310;1188;24158;-88
2022/03/06 02:24:54;;;;;;;9.30;6.30;;;;;;;0.59;55.29;101170.95;117263;1189;23560;-87
2022/03/06 02:27:23;;;;;;;11.30;6.70;;;;;;;0.51;55.23;101169.98;117058;1190;21868;-87
2022/03/06 02:29:52;;;;;;;10.10;7.10;;;;;;;0.52;55.56;101168.27;117305;1188;22647;-88
2022/03/06 02:32:21;;;;;;;11.20;6.90;;;;;;;0.50;55.27;101165.77;117558;1188;21883;-88
2022/03/06 02:34:51;;;;;;;9.90;6.90;;;;;;;0.47;55.48;101167.54;117208;1189;22865;-89
2022/03/06 02:37:20;;;;;;;10.50;6.90;;;;;;;0.39;55.32;101165.16;117548;1189;21875;-89
2022/03/06 02:39:51;;;;;;;10.70;6.60;;;;;;;0.35;55.56;101163.94;117185;1188;21880;-88
2022/03/06 02:42:27;;;;;;;9.40;6.30;;;;;;;0.33;55.57;101166.98;117367;1188;22621;-88
2022/03/06 02:44:56;;;;;;;9.40;6.00;;;;;;;0.32;55.55;101165.36;117348;1188;23145;-88
2022/03/06 02:47:25;;;;;;;8.90;6.30;;;;;;;0.30;55.46;101169.25;117046;1191;23637;-88
2022/03/06 02:49:54;;;;;;;9.60;6.40;;;;;;;0.29;55.70;101166.45;117456;1188;22356;-88
2022/03/06 02:52:22;;;;;;;10.00;6.90;;;;;;;0.27;55.81;101167.25;117349;1189;22793;-88
2022/03/06 02:54:51;;;;;;;9.90;5.90;;;;;;;0.27;55.71;101168.60;116990;1189;21868;-89
2022/03/06 02:57:19;;;;;;;10.00;6.80;;;;;;;0.25;55.53;101171.64;117308;1188;21884;-88
2022/03/06 02:59:48;;;;;;;9.30;6.20;;;;;;;0.25;55.48;101170.58;117256;1188;21853;-89
2022/03/06 03:02:16;;;;;;;8.70;6.60;;;;;;;0.24;55.84;101173.16;117317;1186;21847;-88
2022/03/06 03:04:44;;;;;;;9.50;5.90;;;;;;;0.26;55.26;101175.14;117265;1188;22991;-88
2022/03/06 03:07:13;;;;;;;10.30;5.80;;;;;;;0.24;55.49;101178.31;117778;1183;22667;-88
2022/03/06 03:09:42;;;;;;;8.70;5.70;;;;;;;0.27;55.47;101180.68;117265;1188;21839;-88
2022/03/06 03:12:11;;;;;;;9.00;5.90;;;;;;;0.29;55.65;101185.26;117281;1188;22174;-88
2022/03/06 03:14:39;;;;;;;8.90;5.60;;;;;;;0.24;55.51;101184.20;117295;1189;22853;-88
2022/03/06 03:17:08;;;;;;;9.90;6.10;;;;;;;0.21;55.27;101184.25;117340;1188;22590;-89
2022/03/06 03:19:38;;;;;;;8.60;5.00;;;;;;;0.19;55.52;101186.42;117359;1188;22290;-90
2022/03/06 03:22:07;;;;;;;9.10;6.00;;;;;;;0.16;55.58;101185.75;117251;1188;21862;-89
2022/03/06 03:24:35;;;;;;;9.90;6.60;;;;;;;0.11;55.43;101196.27;117556;1190;21842;-90
2022/03/06 03:27:04;;;;;;;11.70;6.20;;;;;;;0.07;55.32;101195.88;117273;1189;23671;-88
2022/03/06 03:29:33;;;;;;;9.20;6.80;;;;;;;0.04;55.41;101196.81;117274;1191;22012;-88
2022/03/06 03:32:03;;;;;;;8.20;5.50;;;;;;;0.02;55.66;101194.98;117570;1189;21884;-89
2022/03/06 03:34:32;;;;;;;9.00;5.30;;;;;;;-0.00;55.26;101194.55;117322;1189;21913;-87
2022/03/06 03:37:01;;;;;;;9.30;6.00;;;;;;;-0.05;55.28;101196.42;117478;1189;21884;-88
2022/03/06 03:39:31;;;;;;;8.20;5.00;;;;;;;-0.08;55.62;101198.86;117487;1189;22997;-90
2022/03/06 03:41:59;;;;;;;9.50;5.70;;;;;;;-0.11;55.30;101199.25;117340;1188;22854;-88
2022/03/06 03:44:28;;;;;;;10.10;7.00;;;;;;;-0.13;55.46;101201.23;117505;1188;21968;-89
2022/03/06 03:46:56;;;;;;;9.30;6.50;;;;;;;-0.15;55.47;101202.71;117232;1188;21852;-89
2022/03/06 03:49:25;;;;;;;9.40;5.80;;;;;;;-0.18;55.21;101202.08;117311;1188;21949;-89
2022/03/06 03:51:54;;;;;;;9.90;6.40;;;;;;;-0.18;55.44;101199.11;117335;1189;22638;-89
2022/03/06 03:54:23;;;;;;;10.50;6.40;;;;;;;-0.20;55.48;101200.60;117292;1188;21848;-89
2022/03/06 03:56:52;;;;;;;7.20;5.30;;;;;;;-0.21;55.44;101201.94;117239;1188;23638;-89
2022/03/06 03:59:21;;;;;;;8.60;5.50;;;;;;;-0.23;55.36;101203.72;117306;1188;21843;-89
2022/03/06 04:01:52;;;;;;;9.30;5.70;;;;;;;-0.38;55.61;101212.39;117272;1188;22827;-89
2022/03/06 04:04:21;;;;;;;9.90;5.70;;;;;;;-0.44;55.31;101211.08;117147;1188;23436;-88
2022/03/06 04:06:49;;;;;;;9.60;5.90;;;;;;;-0.39;55.29;101216.98;117256;1188;22617;-89
2022/03/06 04:09:18;;;;;;;10.10;6.10;;;;;;;-0.39;55.31;101220.25;117355;1188;22713;-89
2022/03/06 04:11:47;;;;;;;9.20;5.80;;;;;;;-0.41;55.31;101214.48;117344;1188;21854;-89
2022/03/06 04:14:17;;;;;;;8.90;5.50;;;;;;;-0.46;55.16;101216.85;117259;1188;22604;-89
2022/03/06 04:16:45;;;;;;;10.60;6.30;;;;;;;-0.52;55.27;101222.59;117326;1188;21876;-89
2022/03/06 04:19:14;;;;;;;7.30;5.10;;;;;;;-0.56;55.39;101220.85;117583;1189;21887;-89
2022/03/06 04:21:45;;;;;;;10.00;5.80;;;;;;;-0.57;55.25;101221.52;117188;1188;22639;-89
2022/03/06 04:24:13;;;;;;;7.60;5.00;;;;;;;-0.60;55.27;101222.92;117332;1188;23524;-87
2022/03/06 04:26:41;;;;;;;9.50;6.20;;;;;;;-0.65;55.20;101217.35;117315;1188;21880;-89
2022/03/06 04:29:10;;;;;;;9.30;5.60;;;;;;;-0.68;55.31;101223.42;117303;1188;23538;-88
2022/03/06 04:31:38;;;;;;;9.00;5.60;;;;;;;-0.68;55.36;101227.02;117317;1188;22989;-90
2022/03/06 04:34:07;;;;;;;10.10;5.50;;;;;;;-0.70;55.31;101231.95;117373;1188;21839;-90
2022/03/06 04:36:35;;;;;;;8.60;5.40;;;;;;;-0.76;55.01;101227.89;117494;1187;21877;-90
2022/03/06 04:39:13;;;;;;;8.80;5.30;;;;;;;-0.79;55.26;101229.26;117223;1188;22912;-89
2022/03/06 04:41:49;;;;;;;8.70;5.00;;;;;;;-0.81;55.41;101236.44;117114;1188;21854;-92
2022/03/06 04:44:18;;;;;;;7.30;4.90;;;;;;;-0.79;55.30;101234.62;117245;1188;22617;-90
2022/03/06 04:46:47;;;;;;;9.00;5.70;;;;;;;-0.76;55.36;101235.83;117266;1188;22839;-91
2022/03/06 04:49:16;;;;;;;8.90;5.40;;;;;;;-0.73;55.48;101232.81;117171;1188;21834;-90
2022/03/06 04:51:45;;;;;;;18.70;5.80;;;;;;;-0.72;55.36;101234.92;117617;1188;21854;-91
2022/03/06 04:54:13;;;;;;;10.50;5.50;;;;;;;-0.71;55.57;101234.63;117262;1188;23459;-92
2022/03/06 04:56:41;;;;;;;9.80;5.80;;;;;;;-0.66;55.59;101235.23;117225;1188;21865;-90
2022/03/06 04:59:10;;;;;;;16.30;6.00;;;;;;;-0.57;55.49;101242.21;117210;1188;22826;-90
2022/03/06 05:01:38;;;;;;;11.50;6.10;;;;;;;-0.52;55.75;101242.44;117326;1188;21849;-90
2022/03/06 05:04:07;;;;;;;15.50;6.30;;;;;;;-0.47;55.84;101245.27;117500;1188;22822;-90
2022/03/06 05:06:36;;;;;;;12.50;5.50;;;;;;;-0.41;55.78;101247.03;117186;1188;22540;-91
2022/03/06 05:09:11;;;;;;;13.90;5.50;;;;;;;-0.37;55.62;101248.83;117238;1188;22176;-91
2022/03/06 05:11:42;;;;;;;12.10;7.50;;;;;;;-0.32;55.81;101246.46;117167;1189;23095;-90
2022/03/06 05:14:11;;;;;;;10.20;5.70;;;;;;;-0.26;55.71;101256.04;117258;1188;22380;-91
2022/03/06 05:16:40;;;;;;;9.20;6.20;;;;;;;-0.21;56.09;101260.74;117502;1185;22426;-90
2022/03/06 05:19:09;;;;;;;13.90;7.00;;;;;;;-0.12;55.92;101265.13;117870;1188;22826;-89
2022/03/06 05:21:37;;;;;;;30.20;13.50;;;;;;;-0.08;55.79;101265.98;117426;1188;22695;-91
2022/03/06 05:24:07;;;;;;;26.40;14.10;;;;;;;-0.04;55.68;101269.30;117273;1189;21864;-91
2022/03/06 05:26:35;;;;;;;19.70;11.30;;;;;;;0.01;55.81;101266.71;117618;1188;22623;-91
2022/03/06 05:29:04;;;;;;;19.50;10.50;;;;;;;0.07;55.94;101261.12;117359;1188;21877;-90
2022/03/06 05:31:32;;;;;;;17.00;9.20;;;;;;;0.15;55.97;101257.87;117521;1188;23003;-90
2022/03/06 05:34:01;;;;;;;11.00;7.00;;;;;;;0.25;56.31;101255.52;117290;1188;21904;-92
2022/03/06 05:36:32;;;;;;;10.60;6.00;;;;;;;0.34;56.18;101254.21;117677;1188;22899;-91
2022/03/06 05:39:00;;;;;;;10.30;6.00;;;;;;;0.44;56.28;101253.60;117401;1188;23581;-90
2022/03/06 05:41:29;;;;;;;12.30;6.90;;;;;;;0.55;56.08;101251.98;117870;1189;21856;-89
2022/03/06 05:43:58;;;;;;;15.80;8.00;;;;;;;0.66;56.32;101249.69;117524;1186;24146;-91
2022/03/06 05:46:26;;;;;;;13.70;6.90;;;;;;;0.77;56.29;101249.63;117311;1189;21854;-90
2022/03/06 05:48:55;;;;;;;15.70;7.00;;;;;;;0.86;56.25;101263.46;117314;1188;22153;-89
2022/03/06 05:51:23;;;;;;;10.20;7.00;;;;;;;0.99;56.14;101265.19;117687;1188;21856;-90
2022/03/06 05:53:53;;;;;;;12.40;7.10;;;;;;;1.09;56.33;101265.44;117470;1189;22675;-90
2022/03/06 05:56:21;;;;;;;18.40;9.70;;;;;;;1.17;56.27;101265.05;117376;1187;23463;-89
2022/03/06 05:58:49;;;;;;;13.70;8.20;;;;;;;1.28;56.56;101271.23;117507;1188;21902;-91
2022/03/06 06:01:18;;;;;;;15.40;6.90;;;;;;;1.43;56.60;101273.20;117363;1184;23430;-85
2022/03/06 06:03:46;;;;;;;19.50;7.70;;;;;;;1.63;56.96;101272.91;117062;1190;24153;-84
2022/03/06 06:06:15;;;;;;;109.00;15.80;;;;;;;1.82;56.85;101275.54;117174;1189;22574;-85
2022/03/06 06:08:43;;;;;;;30.20;8.20;;;;;;;1.97;56.96;101273.67;117395;1188;21863;-86
2022/03/06 06:11:12;;;;;;;11.20;7.70;;;;;;;2.12;56.73;101270.77;117359;1188;21872;-87
2022/03/06 06:13:40;;;;;;;24.80;10.00;;;;;;;2.29;57.12;101275.70;117532;1188;22869;-86
2022/03/06 06:16:09;;;;;;;21.10;8.50;;;;;;;2.51;57.06;101275.60;117261;1188;21851;-86
2022/03/06 06:18:38;;;;;;;19.90;9.70;;;;;;;2.70;57.07;101275.56;117193;1188;23819;-87
2022/03/06 06:21:06;;;;;;;12.10;7.90;;;;;;;2.90;57.14;101279.36;117170;1188;21865;-86
2022/03/06 06:23:35;;;;;;;14.50;9.00;;;;;;;3.08;57.18;101277.00;117233;1188;23560;-87
2022/03/06 06:26:04;;;;;;;14.20;8.50;;;;;;;3.29;57.22;101277.32;117314;1188;22803;-85
2022/03/06 06:28:35;;;;;;;13.00;8.90;;;;;;;3.49;57.28;101278.48;117306;1188;21856;-88
2022/03/06 06:31:05;;;;;;;13.10;8.70;;;;;;;3.67;57.38;101278.82;117455;1188;22874;-82
2022/03/06 06:33:35;;;;;;;12.30;8.80;;;;;;;3.85;57.22;101274.86;117136;1188;23583;-87
2022/03/06 06:36:04;;;;;;;44.80;23.80;;;;;;;4.07;57.49;101273.41;117291;1189;22087;-87
2022/03/06 06:38:32;;;;;;;18.90;12.40;;;;;;;4.27;57.52;101272.40;117204;1189;23551;-84
2022/03/06 06:41:01;;;;;;;15.70;9.10;;;;;;;4.40;57.43;101269.12;117080;1188;24291;-84
2022/03/06 06:43:30;;;;;;;14.90;9.60;;;;;;;4.57;57.75;101266.80;117298;1189;22158;-85
2022/03/06 06:45:58;;;;;;;12.90;8.60;;;;;;;4.78;57.53;101274.45;117167;1189;23539;-84
2022/03/06 06:48:29;;;;;;;17.00;8.90;;;;;;;5.00;57.56;101278.83;117564;1188;22849;-86
2022/03/06 06:51:04;;;;;;;11.80;8.50;;;;;;;5.20;57.17;101276.55;117200;1189;24138;-86
2022/03/06 06:53:32;;;;;;;25.10;13.70;;;;;;;5.36;57.30;101272.91;117184;1188;21983;-87
2022/03/06 06:56:03;;;;;;;14.40;10.10;;;;;;;5.49;57.50;101271.13;117294;1188;21866;-86
2022/03/06 06:58:32;;;;;;;14.70;9.90;;;;;;;5.66;57.37;101275.00;117170;1188;22466;-87
2022/03/06 07:01:02;;;;;;;14.50;9.60;;;;;;;5.85;57.29;101273.82;117424;1188;21838;-86
2022/03/06 07:03:35;;;;;;;16.90;10.40;;;;;;;5.99;57.78;101273.61;117803;1189;22418;-85
2022/03/06 07:06:03;;;;;;;21.50;12.60;;;;;;;6.22;57.75;101274.62;117713;1189;21839;-86
2022/03/06 07:08:32;;;;;;;25.50;12.90;;;;;;;6.37;57.35;101277.69;117691;1191;21909;-86
2022/03/06 07:11:09;;;;;;;15.00;9.60;;;;;;;6.52;57.61;101275.73;117698;1189;21860;-87
2022/03/06 07:13:39;;;;;;;11.40;8.50;;;;;;;6.69;57.48;101281.09;117678;1188;21923;-87
2022/03/06 07:16:23;;;;;;;13.00;8.30;;;;;;;6.82;57.47;101281.50;118092;1188;21865;-87
2022/03/06 07:19:12;;;;;;;12.90;8.10;;;;;;;6.95;57.25;101279.11;116659;1190;23794;-54
2022/03/06 07:21:41;;;;;;;10.80;8.00;;;;;;;7.09;57.67;101274.09;116677;1189;23638;-64
2022/03/06 07:24:10;;;;;;;10.60;7.80;;;;;;;7.26;57.48;101271.59;116764;1189;24206;-65
2022/03/06 07:26:39;;;;;;;10.80;8.10;;;;;;;7.39;57.74;101266.52;116875;1189;23464;-56
2022/03/06 07:29:07;;;;;;;12.60;8.30;;;;;;;7.52;57.56;101270.91;116979;1188;23456;-64
2022/03/06 07:31:36;;;;;;;10.50;7.90;;;;;;;7.63;57.43;101267.58;116847;1189;21857;-55
2022/03/06 07:34:04;;;;;;;10.10;7.60;;;;;;;7.75;57.62;101266.88;116846;1189;23460;-55
2022/03/06 07:36:33;;;;;;;10.60;7.80;;;;;;;7.93;57.49;101264.83;116913;1189;23476;-56
2022/03/06 07:39:02;;;;;;;11.70;8.20;;;;;;;8.13;57.45;101265.24;116910;1189;21860;-65
2022/03/06 07:41:30;;;;;;;14.20;7.70;;;;;;;8.28;57.64;101258.61;117048;1186;21874;-55
2022/03/06 07:43:59;;;;;;;12.50;7.80;;;;;;;8.42;57.51;101260.34;116892;1189;22853;-55
2022/03/06 07:46:28;;;;;;;10.70;7.60;;;;;;;8.55;57.43;101257.86;116801;1189;23075;-55
2022/03/06 07:48:57;;;;;;;10.60;7.50;;;;;;;8.68;57.56;101255.03;116809;1189;24198;-55
2022/03/06 07:51:25;;;;;;;10.90;6.60;;;;;;;8.86;57.81;101255.71;116759;1190;23491;-64
2022/03/06 07:53:55;;;;;;;11.70;7.20;;;;;;;9.10;57.97;101253.80;116797;1189;23480;-54
2022/03/06 07:56:24;;;;;;;11.00;7.20;;;;;;;9.33;58.10;101256.60;116880;1189;21908;-65
2022/03/06 07:58:53;;;;;;;10.10;7.30;;;;;;;9.61;58.10;101257.31;116898;1189;23453;-63
2022/03/06 08:01:23;;;;;;;12.50;8.40;;;;;;;9.88;58.05;101252.70;116958;1189;22647;-69
2022/03/06 08:03:52;;;;;;;11.10;7.40;;;;;;;10.10;57.98;101250.88;116970;1188;22929;-69
2022/03/06 08:06:20;;;;;;;11.20;8.00;;;;;;;10.35;57.94;101251.67;116887;1189;23576;-55
2022/03/06 08:08:49;;;;;;;10.90;7.40;;;;;;;10.64;58.01;101250.52;116910;1189;21863;-58
2022/03/06 08:11:37;;;;;;;15.10;12.70;;;;;;;10.97;58.29;101246.84;116702;1190;21866;-63
2022/03/06 08:14:07;;;;;;;;;;;;;;;11.42;58.41;101248.90;116686;1189;22607;-54
2022/03/06 08:16:37;;;;;;;21.90;9.50;;;;;;;11.71;57.90;101243.74;116770;1190;22933;-64
2022/03/06 08:19:09;;;;;;;12.00;7.20;;;;;;;11.86;57.71;101243.52;116654;1189;21871;-54
2022/03/06 08:21:39;;;;;;;39.30;16.30;;;;;;;11.85;57.50;101240.71;116834;1189;24719;-53
2022/03/06 08:24:08;;;;;;;13.50;8.10;;;;;;;11.82;57.48;101241.42;116909;1189;21854;-60
2022/03/06 08:26:36;;;;;;;10.90;7.20;;;;;;;11.83;57.55;101241.08;116775;1189;23582;-54
2022/03/06 08:29:05;;;;;;;10.50;7.20;;;;;;;11.94;57.56;101239.81;116887;1189;23453;-67
2022/03/06 08:31:35;;;;;;;10.70;7.10;;;;;;;12.19;57.82;101232.85;116948;1189;23603;-65
2022/03/06 08:34:04;;;;;;;;;;;;;;;12.49;57.91;101231.42;116687;1189;21837;-63
2022/03/06 08:36:34;;;;;;;9.00;5.70;;;;;;;12.71;57.90;101230.93;118916;1189;21788;-57
2022/03/06 08:39:03;;;;;;;8.80;6.10;;;;;;;12.82;57.56;101229.44;117338;1189;21856;-63
2022/03/06 08:41:33;;;;;;;7.50;4.60;;;;;;;12.83;57.27;101228.02;116850;1189;23001;-53
2022/03/06 08:44:02;;;;;;;7.30;4.70;;;;;;;12.85;57.31;101227.81;116832;1189;21857;-63
2022/03/06 08:46:30;;;;;;;5.50;3.60;;;;;;;12.87;57.17;101229.23;116917;1189;21862;-54
2022/03/06 08:49:00;;;;;;;7.90;4.60;;;;;;;12.89;56.97;101230.27;116820;1189;24219;-64
2022/03/06 08:51:28;;;;;;;6.70;3.80;;;;;;;12.85;56.77;101226.59;116886;1189;23274;-63
2022/03/06 08:54:04;;;;;;;10.10;6.00;;;;;;;12.76;56.48;101228.78;117290;1189;22933;-55
2022/03/06 08:56:33;;;;;;;8.60;5.30;;;;;;;12.72;56.61;101228.98;116802;1189;21841;-62
2022/03/06 08:59:01;;;;;;;8.80;4.70;;;;;;;12.71;56.77;101231.29;116916;1189;22997;-55
2022/03/06 09:01:31;;;;;;;8.70;5.20;;;;;;;12.73;56.77;101225.12;116856;1188;23697;-63
2022/03/06 09:04:01;;;;;;;7.20;4.60;;;;;;;12.87;57.02;101223.77;116717;1189;23628;-63
2022/03/06 09:06:29;;;;;;;8.20;4.00;;;;;;;13.04;57.03;101220.44;116868;1188;23464;-62
2022/03/06 09:08:58;;;;;;;6.20;3.40;;;;;;;13.10;57.07;101222.32;117835;1186;21860;-54
2022/03/06 09:11:26;;;;;;;4.50;2.40;;;;;;;13.16;57.30;101221.56;116906;1188;22931;-63
2022/03/06 09:13:55;;;;;;;4.60;2.60;;;;;;;13.32;57.44;101217.70;116921;1191;22713;-55
2022/03/06 09:16:43;;;;;;;6.30;3.60;;;;;;;13.53;57.40;101215.94;116899;1188;21865;-55
2022/03/06 09:19:12;;;;;;;7.00;4.20;;;;;;;13.72;57.59;101221.86;116879;1189;23614;-63
2022/03/06 09:21:43;;;;;;;6.60;3.90;;;;;;;13.83;57.28;101220.52;116905;1189;22935;-55
2022/03/06 09:24:11;;;;;;;;;;;;;;;13.80;56.87;101219.85;116873;1188;22605;-54
2022/03/06 09:26:42;;;;;;;6.20;4.20;;;;;;;13.72;56.60;101218.02;116913;1184;21939;-54
2022/03/06 09:29:13;;;;;;;6.00;3.50;;;;;;;13.58;56.47;101221.16;116940;1188;23286;-61
2022/03/06 09:31:44;;;;;;;5.80;4.00;;;;;;;13.38;56.29;101224.19;116865;1188;21858;-62
2022/03/06 09:34:14;;;;;;;6.40;3.40;;;;;;;13.14;56.06;101221.59;116907;1188;23556;-62
2022/03/06 09:36:47;;;;;;;4.70;3.30;;;;;;;12.90;56.02;101217.40;116795;1189;24153;-54
2022/03/06 09:39:16;;;;;;;5.80;3.60;;;;;;;12.67;56.02;101215.64;116866;1189;23556;-63
2022/03/06 09:41:45;;;;;;;5.50;3.50;;;;;;;12.54;56.06;101216.98;116790;1189;23610;-55
2022/03/06 09:44:15;;;;;;;5.40;3.70;;;;;;;12.48;56.19;101217.89;116928;1189;21865;-63
2022/03/06 09:46:48;;;;;;;6.70;3.90;;;;;;;12.45;56.39;101222.14;116647;1192;22645;-64
2022/03/06 09:49:33;;;;;;;5.80;3.80;;;;;;;12.40;56.33;101215.99;116762;1191;22626;-64
2022/03/06 09:52:21;;;;;;;4.40;3.30;;;;;;;12.32;56.22;101215.00;116764;1190;23523;-63
2022/03/06 09:54:51;;;;;;;6.50;4.40;;;;;;;12.29;56.37;101212.20;116919;1188;22948;-55
2022/03/06 09:57:20;;;;;;;8.40;4.20;;;;;;;12.27;56.52;101213.61;116950;1188;23487;-64
2022/03/06 09:59:49;;;;;;;6.50;3.60;;;;;;;12.26;56.32;101212.58;116914;1189;21904;-64
2022/03/06 10:02:18;;;;;;;7.70;3.30;;;;;;;12.30;56.55;101211.85;116886;1189;23554;-56
2022/03/06 10:04:47;;;;;;;5.40;3.60;;;;;;;12.35;56.51;101211.46;116934;1191;22710;-56
2022/03/06 10:07:21;;;;;;;8.80;3.50;;;;;;;12.39;56.45;101212.31;116876;1189;22935;-55
2022/03/06 10:09:51;;;;;;;6.20;3.60;;;;;;;12.41;56.64;101208.60;116859;1189;21862;-55
2022/03/06 10:12:40;;;;;;;4.80;3.80;;;;;;;12.36;56.55;101204.41;116887;1188;21910;-63
2022/03/06 10:15:13;;;;;;;5.40;3.60;;;;;;;12.32;56.20;101210.26;116756;1188;22932;-63
2022/03/06 10:17:41;;;;;;;6.50;3.90;;;;;;;12.24;56.16;101208.02;116888;1189;23672;-54
2022/03/06 10:20:10;;;;;;;7.50;3.90;;;;;;;12.04;55.92;101204.05;116922;1189;21845;-55
2022/03/06 10:22:43;;;;;;;7.70;3.70;;;;;;;11.90;55.97;101207.80;116800;1190;21848;-55
2022/03/06 10:25:16;;;;;;;6.50;4.20;;;;;;;11.82;56.06;101209.42;116953;1189;23682;-55
2022/03/06 10:27:48;;;;;;;6.00;3.50;;;;;;;11.73;56.17;101205.93;116788;1189;22949;-53
2022/03/06 10:30:23;;;;;;;6.10;3.80;;;;;;;11.58;56.00;101202.13;116859;1189;21851;-54
2022/03/06 10:32:53;;;;;;;6.10;3.70;;;;;;;11.37;55.67;101203.06;116883;1189;23453;-62
2022/03/06 10:35:25;;;;;;;6.80;3.50;;;;;;;11.18;55.55;101205.73;116900;1189;23675;-62
2022/03/06 10:37:54;;;;;;;5.80;3.80;;;;;;;11.03;55.57;101200.30;116897;1189;22979;-63
2022/03/06 10:40:35;;;;;;;6.00;2.80;;;;;;;10.92;55.68;101196.10;116747;1190;23483;-53
2022/03/06 10:43:20;;;;;;;5.40;3.10;;;;;;;10.75;55.51;101198.57;116857;1190;21852;-62
2022/03/06 10:45:50;;;;;;;7.40;3.20;;;;;;;10.51;55.59;101199.42;116921;1189;21849;-54
2022/03/06 10:48:19;;;;;;;7.20;2.60;;;;;;;10.38;55.71;101201.69;116914;1184;23638;-62
2022/03/06 10:50:47;;;;;;;4.10;2.40;;;;;;;10.31;55.71;101197.79;116731;1190;23469;-59
2022/03/06 10:53:17;;;;;;;7.90;3.10;;;;;;;10.17;55.66;101198.63;116917;1188;21866;-54
2022/03/06 10:55:46;;;;;;;5.80;2.80;;;;;;;10.05;55.66;101195.09;116825;1189;23004;-63
2022/03/06 10:58:14;;;;;;;4.50;2.60;;;;;;;9.95;55.70;101197.70;116902;1189;23454;-55
2022/03/06 11:00:43;;;;;;;4.30;2.60;;;;;;;9.84;55.63;101199.41;116778;1189;21903;-62
2022/03/06 11:03:13;;;;;;;4.80;2.50;;;;;;;9.75;55.73;101195.34;117954;1190;22936;-54
2022/03/06 11:05:44;;;;;;;4.80;2.80;;;;;;;9.71;55.83;101197.96;116826;1189;23642;-63
2022/03/06 11:08:16;;;;;;;10.90;3.60;;;;;;;9.73;55.77;101195.33;116916;1189;23453;-54
2022/03/06 11:10:44;;;;;;;6.10;3.10;;;;;;;9.71;55.71;101193.04;116773;1186;22935;-54
2022/03/06 11:13:13;;;;;;;9.30;3.50;;;;;;;9.60;55.96;101190.02;116975;1189;23479;-64
2022/03/06 11:15:42;;;;;;;7.70;3.20;;;;;;;9.64;55.69;101192.66;116753;1189;24261;-64
2022/03/06 11:18:20;;;;;;;11.10;3.20;;;;;;;9.63;55.65;101190.56;116789;1189;23464;-63
2022/03/06 11:20:48;;;;;;;7.40;3.20;;;;;;;9.51;55.72;101185.23;116836;1190;23499;-61
2022/03/06 11:23:37;;;;;;;4.40;2.80;;;;;;;9.45;55.79;101185.74;116807;1189;22655;-55
2022/03/06 11:26:17;;;;;;;4.20;2.80;;;;;;;9.53;55.67;101185.78;116813;1189;22445;-65
2022/03/06 11:28:58;;;;;;;;;;;;;;;9.56;55.63;101182.10;116859;1189;24162;-66
2022/03/06 11:31:29;;;;;;;4.70;2.70;;;;;;;9.57;55.59;101175.98;116863;1186;23619;-66
2022/03/06 11:34:03;;;;;;;7.10;3.20;;;;;;;9.59;55.71;101174.94;116767;1189;22936;-54
2022/03/06 11:36:32;;;;;;;5.10;3.20;;;;;;;9.58;55.58;101170.02;116802;1188;21863;-53